sensor_id;sensor_type;location;lat;lon;timestamp;pressure;altitude;pressure_sealevel;temperature;humidity
50933;BME280;36921;49.006;9.292;2023-04-20T00:00:27;98790.03;;;2.30;100.00
50933;BME280;36921;49.006;9.292;2023-04-20T00:02:53;98795.50;;;2.38;100.00
50933;BME280;36921;49.006;9.292;2023-04-20T00:05:18;98788.50;;;2.28;100.00
50933;BME280;36921;49.006;9.292;2023-04-20T00:07:43;98788.38;;;2.29;100.00
50933;BME280;36921;49.006;9.292;2023-04-20T00:10:09;98784.56;;;2.32;100.00
50933;BME280;36921;49.006;9.292;2023-04-20T00:12:35;98778.91;;;2.35;100.00
50933;BME280;36921;49.006;9.292;2023-04-20T00:15:00;98777.25;;;2.34;100.00
50933;BME280;36921;49.006;9.292;2023-04-20T00:17:26;98761.69;;;2.29;100.00
50933;BME280;36921;49.006;9.292;2023-04-20T00:19:51;98767.63;;;2.41;100.00
50933;BME280;36921;49.006;9.292;2023-04-20T00:22:16;98773.06;;;2.31;100.00
50933;BME280;36921;49.006;9.292;2023-04-20T00:24:43;98765.94;;;2.22;100.00
50933;BME280;36921;49.006;9.292;2023-04-20T00:27:08;98767.75;;;2.04;100.00
50933;BME280;36921;49.006;9.292;2023-04-20T00:29:33;98762.94;;;1.89;100.00
50933;BME280;36921;49.006;9.292;2023-04-20T00:31:59;98765.91;;;1.86;100.00
50933;BME280;36921;49.006;9.292;2023-04-20T00:34:24;98764.75;;;1.89;100.00
50933;BME280;36921;49.006;9.292;2023-04-20T00:36:49;98755.47;;;1.93;100.00
50933;BME280;36921;49.006;9.292;2023-04-20T00:39:15;98753.78;;;1.92;100.00
50933;BME280;36921;49.006;9.292;2023-04-20T00:41:40;98745.34;;;1.96;100.00
50933;BME280;36921;49.006;9.292;2023-04-20T00:44:08;98749.72;;;1.88;100.00
50933;BME280;36921;49.006;9.292;2023-04-20T00:46:36;98740.19;;;1.85;100.00
50933;BME280;36921;49.006;9.292;2023-04-20T00:49:01;98743.91;;;1.74;100.00
50933;BME280;36921;49.006;9.292;2023-04-20T00:51:28;98736.81;;;1.65;100.00
50933;BME280;36921;49.006;9.292;2023-04-20T00:53:53;98732.44;;;1.64;100.00
50933;BME280;36921;49.006;9.292;2023-04-20T00:56:19;98721.25;;;1.61;100.00
50933;BME280;36921;49.006;9.292;2023-04-20T00:58:45;98728.34;;;1.42;100.00
50933;BME280;36921;49.006;9.292;2023-04-20T01:01:11;98729.53;;;1.30;100.00
50933;BME280;36921;49.006;9.292;2023-04-20T01:03:38;98738.25;;;1.13;100.00
50933;BME280;36921;49.006;9.292;2023-04-20T01:06:05;98725.69;;;1.05;100.00
50933;BME280;36921;49.006;9.292;2023-04-20T01:08:31;98726.13;;;1.00;100.00
50933;BME280;36921;49.006;9.292;2023-04-20T01:10:56;98723.47;;;1.00;100.00
50933;BME280;36921;49.006;9.292;2023-04-20T01:13:26;98714.88;;;1.06;100.00
50933;BME280;36921;49.006;9.292;2023-04-20T01:15:51;98718.47;;;1.25;100.00
50933;BME280;36921;49.006;9.292;2023-04-20T01:18:16;98712.50;;;1.03;100.00
50933;BME280;36921;49.006;9.292;2023-04-20T01:20:45;98714.34;;;0.93;100.00
50933;BME280;36921;49.006;9.292;2023-04-20T01:23:13;98716.50;;;0.80;100.00
50933;BME280;36921;49.006;9.292;2023-04-20T01:25:39;98715.63;;;0.89;100.00
50933;BME280;36921;49.006;9.292;2023-04-20T01:28:05;98702.47;;;0.87;100.00
50933;BME280;36921;49.006;9.292;2023-04-20T01:30:31;98712.41;;;0.95;100.00
50933;BME280;36921;49.006;9.292;2023-04-20T01:32:56;98706.38;;;0.93;100.00
50933;BME280;36921;49.006;9.292;2023-04-20T01:35:21;98705.50;;;1.02;100.00
50933;BME280;36921;49.006;9.292;2023-04-20T01:37:47;98699.00;;;1.15;100.00
50933;BME280;36921;49.006;9.292;2023-04-20T01:40:13;98693.25;;;1.19;100.00
50933;BME280;36921;49.006;9.292;2023-04-20T01:42:39;98691.41;;;1.20;100.00
50933;BME280;36921;49.006;9.292;2023-04-20T01:45:05;98685.97;;;1.12;100.00
50933;BME280;36921;49.006;9.292;2023-04-20T01:47:31;98685.97;;;1.12;100.00
50933;BME280;36921;49.006;9.292;2023-04-20T01:49:57;98684.41;;;1.19;100.00
50933;BME280;36921;49.006;9.292;2023-04-20T01:52:22;98681.19;;;1.15;100.00
50933;BME280;36921;49.006;9.292;2023-04-20T01:54:47;98672.34;;;1.15;100.00
50933;BME280;36921;49.006;9.292;2023-04-20T01:57:13;98678.25;;;1.18;100.00
50933;BME280;36921;49.006;9.292;2023-04-20T01:59:38;98674.72;;;1.18;100.00
50933;BME280;36921;49.006;9.292;2023-04-20T02:02:04;98675.72;;;1.17;100.00
50933;BME280;36921;49.006;9.292;2023-04-20T02:04:29;98665.06;;;1.17;100.00
50933;BME280;36921;49.006;9.292;2023-04-20T02:06:55;98677.56;;;1.06;100.00
50933;BME280;36921;49.006;9.292;2023-04-20T02:09:20;98664.56;;;1.03;100.00
50933;BME280;36921;49.006;9.292;2023-04-20T02:11:46;98666.53;;;0.92;100.00
50933;BME280;36921;49.006;9.292;2023-04-20T02:14:11;98667.00;;;0.87;100.00
50933;BME280;36921;49.006;9.292;2023-04-20T02:16:36;98669.97;;;0.84;100.00
50933;BME280;36921;49.006;9.292;2023-04-20T02:19:02;98654.81;;;0.84;100.00
50933;BME280;36921;49.006;9.292;2023-04-20T02:21:27;98657.03;;;0.89;100.00
50933;BME280;36921;49.006;9.292;2023-04-20T02:23:53;98647.13;;;0.81;100.00
50933;BME280;36921;49.006;9.292;2023-04-20T02:26:18;98658.50;;;0.74;100.00
50933;BME280;36921;49.006;9.292;2023-04-20T02:28:43;98645.91;;;0.56;100.00
50933;BME280;36921;49.006;9.292;2023-04-20T02:31:09;98639.66;;;0.38;100.00
50933;BME280;36921;49.006;9.292;2023-04-20T02:33:36;98648.22;;;0.32;100.00
50933;BME280;36921;49.006;9.292;2023-04-20T02:36:01;98639.13;;;0.34;100.00
50933;BME280;36921;49.006;9.292;2023-04-20T02:38:27;98639.53;;;0.30;100.00
50933;BME280;36921;49.006;9.292;2023-04-20T02:40:52;98635.88;;;0.40;100.00
50933;BME280;36921;49.006;9.292;2023-04-20T02:43:17;98628.59;;;0.33;100.00
50933;BME280;36921;49.006;9.292;2023-04-20T02:45:43;98629.13;;;0.36;100.00
50933;BME280;36921;49.006;9.292;2023-04-20T02:48:08;98622.88;;;0.28;100.00
50933;BME280;36921;49.006;9.292;2023-04-20T02:50:34;98625.94;;;0.23;100.00
50933;BME280;36921;49.006;9.292;2023-04-20T02:53:05;98624.00;;;0.15;100.00
50933;BME280;36921;49.006;9.292;2023-04-20T02:55:30;98619.38;;;0.08;100.00
50933;BME280;36921;49.006;9.292;2023-04-20T02:57:56;98620.91;;;0.10;100.00
50933;BME280;36921;49.006;9.292;2023-04-20T03:00:21;98616.28;;;0.12;100.00
50933;BME280;36921;49.006;9.292;2023-04-20T03:02:53;98623.16;;;0.05;100.00
50933;BME280;36921;49.006;9.292;2023-04-20T03:05:18;98616.03;;;-0.04;100.00
50933;BME280;36921;49.006;9.292;2023-04-20T03:07:44;98616.88;;;-0.13;100.00
50933;BME280;36921;49.006;9.292;2023-04-20T03:10:09;98618.56;;;-0.12;100.00
50933;BME280;36921;49.006;9.292;2023-04-20T03:12:35;98616.31;;;-0.17;100.00
50933;BME280;36921;49.006;9.292;2023-04-20T03:15:01;98609.75;;;-0.23;100.00
50933;BME280;36921;49.006;9.292;2023-04-20T03:17:28;98608.75;;;-0.22;100.00
50933;BME280;36921;49.006;9.292;2023-04-20T03:19:53;98611.28;;;-0.30;100.00
50933;BME280;36921;49.006;9.292;2023-04-20T03:22:19;98610.28;;;-0.38;100.00
50933;BME280;36921;49.006;9.292;2023-04-20T03:24:44;98610.84;;;-0.35;100.00
50933;BME280;36921;49.006;9.292;2023-04-20T03:27:10;98612.97;;;-0.29;100.00
50933;BME280;36921;49.006;9.292;2023-04-20T03:29:36;98618.28;;;-0.29;100.00
50933;BME280;36921;49.006;9.292;2023-04-20T03:35:15;98636.44;;;-0.24;100.00
50933;BME280;36921;49.006;9.292;2023-04-20T03:37:41;98626.81;;;-0.25;100.00
50933;BME280;36921;49.006;9.292;2023-04-20T03:40:22;98622.75;;;-0.19;100.00
50933;BME280;36921;49.006;9.292;2023-04-20T03:42:49;98625.28;;;-0.18;100.00
50933;BME280;36921;49.006;9.292;2023-04-20T03:45:14;98621.94;;;-0.10;100.00
50933;BME280;36921;49.006;9.292;2023-04-20T03:47:40;98618.41;;;-0.01;100.00
50933;BME280;36921;49.006;9.292;2023-04-20T03:50:06;98613.09;;;-0.11;100.00
50933;BME280;36921;49.006;9.292;2023-04-20T03:52:31;98620.94;;;-0.09;100.00
50933;BME280;36921;49.006;9.292;2023-04-20T03:54:57;98602.44;;;-0.11;100.00
50933;BME280;36921;49.006;9.292;2023-04-20T03:57:22;98609.59;;;-0.11;100.00
50933;BME280;36921;49.006;9.292;2023-04-20T03:59:48;98611.56;;;-0.23;100.00
50933;BME280;36921;49.006;9.292;2023-04-20T04:02:13;98607.91;;;-0.32;100.00
50933;BME280;36921;49.006;9.292;2023-04-20T04:04:39;98611.81;;;-0.46;100.00
50933;BME280;36921;49.006;9.292;2023-04-20T04:07:05;98606.81;;;-0.39;100.00
50933;BME280;36921;49.006;9.292;2023-04-20T04:09:31;98604.81;;;-0.37;100.00
50933;BME280;36921;49.006;9.292;2023-04-20T04:11:56;98604.41;;;-0.42;100.00
50933;BME280;36921;49.006;9.292;2023-04-20T04:14:22;98607.50;;;-0.47;100.00
50933;BME280;36921;49.006;9.292;2023-04-20T04:16:47;98601.88;;;-0.53;100.00
50933;BME280;36921;49.006;9.292;2023-04-20T04:19:13;98603.16;;;-0.57;100.00
50933;BME280;36921;49.006;9.292;2023-04-20T04:21:38;98602.84;;;-0.64;100.00
50933;BME280;36921;49.006;9.292;2023-04-20T04:24:04;98611.78;;;-0.75;100.00
50933;BME280;36921;49.006;9.292;2023-04-20T04:26:29;98609.53;;;-0.79;100.00
50933;BME280;36921;49.006;9.292;2023-04-20T04:28:56;98608.97;;;-0.83;100.00
50933;BME280;36921;49.006;9.292;2023-04-20T04:31:22;98615.97;;;-0.72;100.00
50933;BME280;36921;49.006;9.292;2023-04-20T04:33:48;98609.56;;;-0.60;100.00
50933;BME280;36921;49.006;9.292;2023-04-20T04:36:14;98618.66;;;-0.62;100.00
50933;BME280;36921;49.006;9.292;2023-04-20T04:38:40;98614.75;;;-0.49;100.00
50933;BME280;36921;49.006;9.292;2023-04-20T04:41:08;98607.50;;;-0.27;100.00
50933;BME280;36921;49.006;9.292;2023-04-20T04:43:34;98607.91;;;-0.22;100.00
50933;BME280;36921;49.006;9.292;2023-04-20T04:46:05;98608.91;;;-0.23;100.00
50933;BME280;36921;49.006;9.292;2023-04-20T04:48:32;98600.38;;;-0.17;100.00
50933;BME280;36921;49.006;9.292;2023-04-20T04:50:59;98604.69;;;-0.16;100.00
50933;BME280;36921;49.006;9.292;2023-04-20T04:53:25;98595.06;;;-0.07;100.00
50933;BME280;36921;49.006;9.292;2023-04-20T04:55:50;98597.13;;;0.09;100.00
50933;BME280;36921;49.006;9.292;2023-04-20T04:58:15;98589.41;;;0.15;100.00
50933;BME280;36921;49.006;9.292;2023-04-20T05:00:41;98587.00;;;0.32;100.00
50933;BME280;36921;49.006;9.292;2023-04-20T05:03:06;98589.38;;;0.35;100.00
50933;BME280;36921;49.006;9.292;2023-04-20T05:05:32;98589.91;;;0.48;100.00
50933;BME280;36921;49.006;9.292;2023-04-20T05:07:57;98590.72;;;0.58;100.00
50933;BME280;36921;49.006;9.292;2023-04-20T05:10:22;98588.06;;;0.58;100.00
50933;BME280;36921;49.006;9.292;2023-04-20T05:12:48;98586.34;;;0.57;100.00
50933;BME280;36921;49.006;9.292;2023-04-20T05:15:13;98586.13;;;0.78;100.00
50933;BME280;36921;49.006;9.292;2023-04-20T05:17:39;98577.69;;;0.93;100.00
50933;BME280;36921;49.006;9.292;2023-04-20T05:20:05;98580.84;;;1.06;100.00
50933;BME280;36921;49.006;9.292;2023-04-20T05:22:31;98573.41;;;1.27;100.00
50933;BME280;36921;49.006;9.292;2023-04-20T05:24:57;98576.81;;;1.47;100.00
50933;BME280;36921;49.006;9.292;2023-04-20T05:27:22;98577.34;;;1.69;100.00
50933;BME280;36921;49.006;9.292;2023-04-20T05:29:47;98573.22;;;1.92;100.00
50933;BME280;36921;49.006;9.292;2023-04-20T05:32:13;98573.19;;;2.10;100.00
50933;BME280;36921;49.006;9.292;2023-04-20T05:37:24;98578.44;;;2.46;100.00
50933;BME280;36921;49.006;9.292;2023-04-20T05:39:51;98569.25;;;2.49;100.00
50933;BME280;36921;49.006;9.292;2023-04-20T05:42:17;98577.97;;;2.51;100.00
50933;BME280;36921;49.006;9.292;2023-04-20T05:44:42;98575.19;;;2.60;100.00
50933;BME280;36921;49.006;9.292;2023-04-20T05:47:08;98572.41;;;2.70;100.00
50933;BME280;36921;49.006;9.292;2023-04-20T05:49:34;98572.97;;;2.82;100.00
50933;BME280;36921;49.006;9.292;2023-04-20T05:52:00;98563.00;;;3.51;100.00
50933;BME280;36921;49.006;9.292;2023-04-20T05:54:26;98556.69;;;5.83;100.00
50933;BME280;36921;49.006;9.292;2023-04-20T05:56:53;98557.81;;;8.25;100.00
50933;BME280;36921;49.006;9.292;2023-04-20T05:59:19;98550.28;;;10.41;100.00
50933;BME280;36921;49.006;9.292;2023-04-20T06:01:44;98548.94;;;11.55;88.92
50933;BME280;36921;49.006;9.292;2023-04-20T06:04:09;98543.03;;;13.40;71.22
50933;BME280;36921;49.006;9.292;2023-04-20T06:06:35;98536.50;;;15.26;63.13
50933;BME280;36921;49.006;9.292;2023-04-20T06:09:00;98546.31;;;16.53;56.18
50933;BME280;36921;49.006;9.292;2023-04-20T06:11:26;98545.41;;;17.86;52.89
50933;BME280;36921;49.006;9.292;2023-04-20T06:13:51;98539.47;;;18.54;49.91
50933;BME280;36921;49.006;9.292;2023-04-20T06:16:17;98545.59;;;18.98;47.45
50933;BME280;36921;49.006;9.292;2023-04-20T06:18:42;98532.66;;;19.36;46.74
50933;BME280;36921;49.006;9.292;2023-04-20T06:21:09;98551.25;;;19.29;45.55
50933;BME280;36921;49.006;9.292;2023-04-20T06:23:35;98544.47;;;20.20;44.28
50933;BME280;36921;49.006;9.292;2023-04-20T06:26:02;98540.34;;;21.05;43.22
50933;BME280;36921;49.006;9.292;2023-04-20T06:28:27;98529.66;;;22.23;41.20
50933;BME280;36921;49.006;9.292;2023-04-20T06:30:52;98522.25;;;22.52;40.65
50933;BME280;36921;49.006;9.292;2023-04-20T06:33:18;98528.22;;;22.99;38.76
50933;BME280;36921;49.006;9.292;2023-04-20T06:35:43;98520.78;;;22.94;38.80
50933;BME280;36921;49.006;9.292;2023-04-20T06:38:09;98521.09;;;22.93;38.86
50933;BME280;36921;49.006;9.292;2023-04-20T06:40:34;98515.72;;;23.07;39.08
50933;BME280;36921;49.006;9.292;2023-04-20T06:43:01;98516.44;;;22.88;38.46
50933;BME280;36921;49.006;9.292;2023-04-20T06:45:26;98506.97;;;23.72;38.79
50933;BME280;36921;49.006;9.292;2023-04-20T06:47:52;98506.22;;;23.85;38.23
50933;BME280;36921;49.006;9.292;2023-04-20T06:50:17;98508.22;;;24.55;36.55
50933;BME280;36921;49.006;9.292;2023-04-20T06:52:42;98510.72;;;23.57;37.34
50933;BME280;36921;49.006;9.292;2023-04-20T06:55:09;98512.84;;;20.38;41.08
50933;BME280;36921;49.006;9.292;2023-04-20T06:57:35;98520.78;;;18.13;44.07
50933;BME280;36921;49.006;9.292;2023-04-20T07:00:05;98512.41;;;18.62;43.96
50933;BME280;36921;49.006;9.292;2023-04-20T07:02:41;98509.88;;;18.88;44.52
50933;BME280;36921;49.006;9.292;2023-04-20T07:05:07;98514.22;;;17.65;47.13
50933;BME280;36921;49.006;9.292;2023-04-20T07:07:32;98508.63;;;17.77;47.30
50933;BME280;36921;49.006;9.292;2023-04-20T07:09:58;98501.03;;;20.43;44.77
50933;BME280;36921;49.006;9.292;2023-04-20T07:12:23;98500.94;;;23.65;39.62
50933;BME280;36921;49.006;9.292;2023-04-20T07:14:52;98491.97;;;25.28;35.36
50933;BME280;36921;49.006;9.292;2023-04-20T07:17:18;98494.97;;;23.57;38.13
50933;BME280;36921;49.006;9.292;2023-04-20T07:19:43;98505.34;;;19.72;40.68
50933;BME280;36921;49.006;9.292;2023-04-20T07:22:09;98513.44;;;16.31;48.14
50933;BME280;36921;49.006;9.292;2023-04-20T07:24:34;98510.84;;;16.08;49.27
50933;BME280;36921;49.006;9.292;2023-04-20T07:26:59;98505.13;;;17.60;46.62
50933;BME280;36921;49.006;9.292;2023-04-20T07:29:25;98497.69;;;21.02;42.44
50933;BME280;36921;49.006;9.292;2023-04-20T07:31:50;98479.50;;;22.55;39.24
50933;BME280;36921;49.006;9.292;2023-04-20T07:34:16;98484.88;;;25.35;36.56
50933;BME280;36921;49.006;9.292;2023-04-20T07:36:41;98487.31;;;25.65;36.17
50933;BME280;36921;49.006;9.292;2023-04-20T07:39:07;98481.34;;;26.98;34.02
50933;BME280;36921;49.006;9.292;2023-04-20T07:41:32;98473.38;;;28.19;32.83
50933;BME280;36921;49.006;9.292;2023-04-20T07:43:57;98479.16;;;27.74;32.92
50933;BME280;36921;49.006;9.292;2023-04-20T07:46:23;98479.75;;;28.20;32.25
50933;BME280;36921;49.006;9.292;2023-04-20T07:48:48;98471.91;;;28.48;31.43
50933;BME280;36921;49.006;9.292;2023-04-20T07:51:14;98472.75;;;28.87;31.43
50933;BME280;36921;49.006;9.292;2023-04-20T07:53:40;98477.34;;;27.13;32.67
50933;BME280;36921;49.006;9.292;2023-04-20T07:56:07;98479.03;;;29.90;30.37
50933;BME280;36921;49.006;9.292;2023-04-20T07:58:32;98473.66;;;30.27;29.42
50933;BME280;36921;49.006;9.292;2023-04-20T08:00:59;98484.38;;;29.07;29.33
50933;BME280;36921;49.006;9.292;2023-04-20T08:03:24;98481.84;;;28.32;31.02
50933;BME280;36921;49.006;9.292;2023-04-20T08:05:52;98473.53;;;24.77;33.72
50933;BME280;36921;49.006;9.292;2023-04-20T08:08:17;98487.09;;;21.50;37.40
50933;BME280;36921;49.006;9.292;2023-04-20T08:10:43;98479.00;;;19.03;40.06
50933;BME280;36921;49.006;9.292;2023-04-20T08:13:08;98489.13;;;17.24;43.47
50933;BME280;36921;49.006;9.292;2023-04-20T08:15:33;98464.81;;;19.21;42.07
50933;BME280;36921;49.006;9.292;2023-04-20T08:17:59;98467.53;;;20.00;40.26
50933;BME280;36921;49.006;9.292;2023-04-20T08:20:25;98467.66;;;17.60;43.65
50933;BME280;36921;49.006;9.292;2023-04-20T08:22:50;98478.53;;;15.02;47.93
50933;BME280;36921;49.006;9.292;2023-04-20T08:25:17;98481.31;;;14.01;51.34
50933;BME280;36921;49.006;9.292;2023-04-20T08:27:42;98478.75;;;14.30;52.53
50933;BME280;36921;49.006;9.292;2023-04-20T08:30:08;98480.44;;;14.66;52.95
50933;BME280;36921;49.006;9.292;2023-04-20T08:32:33;98466.31;;;16.75;47.85
50933;BME280;36921;49.006;9.292;2023-04-20T08:34:59;98473.25;;;15.24;51.07
50933;BME280;36921;49.006;9.292;2023-04-20T08:37:24;98477.66;;;12.61;56.04
50933;BME280;36921;49.006;9.292;2023-04-20T08:39:50;98475.84;;;11.80;62.83
50933;BME280;36921;49.006;9.292;2023-04-20T08:42:15;98479.88;;;10.81;85.29
50933;BME280;36921;49.006;9.292;2023-04-20T08:44:41;98488.28;;;10.39;100.00
50933;BME280;36921;49.006;9.292;2023-04-20T08:47:08;98487.22;;;9.94;100.00
50933;BME280;36921;49.006;9.292;2023-04-20T08:49:36;98485.94;;;9.63;100.00
50933;BME280;36921;49.006;9.292;2023-04-20T08:52:04;98487.56;;;9.44;100.00
50933;BME280;36921;49.006;9.292;2023-04-20T08:54:29;98486.84;;;9.22;100.00
50933;BME280;36921;49.006;9.292;2023-04-20T08:56:55;98480.72;;;9.61;100.00
50933;BME280;36921;49.006;9.292;2023-04-20T08:59:21;98487.75;;;9.36;100.00
50933;BME280;36921;49.006;9.292;2023-04-20T09:01:46;98486.06;;;9.28;100.00
50933;BME280;36921;49.006;9.292;2023-04-20T09:04:20;98485.56;;;9.11;100.00
50933;BME280;36921;49.006;9.292;2023-04-20T09:06:47;98487.38;;;8.97;100.00
50933;BME280;36921;49.006;9.292;2023-04-20T09:09:14;98484.84;;;9.44;100.00
50933;BME280;36921;49.006;9.292;2023-04-20T09:11:40;98487.19;;;9.74;100.00
50933;BME280;36921;49.006;9.292;2023-04-20T09:14:07;98483.88;;;10.05;100.00
50933;BME280;36921;49.006;9.292;2023-04-20T09:16:37;98468.72;;;10.37;100.00
50933;BME280;36921;49.006;9.292;2023-04-20T09:19:25;98485.16;;;10.29;100.00
50933;BME280;36921;49.006;9.292;2023-04-20T09:21:54;98483.00;;;9.51;100.00
50933;BME280;36921;49.006;9.292;2023-04-20T09:24:21;98478.00;;;9.41;100.00
50933;BME280;36921;49.006;9.292;2023-04-20T09:26:46;98471.06;;;9.19;100.00
50933;BME280;36921;49.006;9.292;2023-04-20T09:29:16;98489.50;;;9.09;100.00
50933;BME280;36921;49.006;9.292;2023-04-20T09:31:42;98474.22;;;9.23;100.00
50933;BME280;36921;49.006;9.292;2023-04-20T09:34:08;98456.94;;;9.10;100.00
50933;BME280;36921;49.006;9.292;2023-04-20T09:36:45;98483.13;;;9.23;100.00
50933;BME280;36921;49.006;9.292;2023-04-20T09:39:17;98450.53;;;9.25;100.00
50933;BME280;36921;49.006;9.292;2023-04-20T09:41:43;98481.38;;;9.77;100.00
50933;BME280;36921;49.006;9.292;2023-04-20T09:44:10;98467.69;;;10.12;100.00
50933;BME280;36921;49.006;9.292;2023-04-20T09:46:38;98466.84;;;10.24;100.00
50933;BME280;36921;49.006;9.292;2023-04-20T09:49:06;98463.47;;;10.62;100.00
50933;BME280;36921;49.006;9.292;2023-04-20T09:51:37;98453.88;;;10.73;100.00
50933;BME280;36921;49.006;9.292;2023-04-20T09:54:04;98462.31;;;11.03;100.00
50933;BME280;36921;49.006;9.292;2023-04-20T09:56:30;98447.59;;;10.79;100.00
50933;BME280;36921;49.006;9.292;2023-04-20T09:58:57;98466.09;;;10.89;100.00
50933;BME280;36921;49.006;9.292;2023-04-20T10:01:23;98441.72;;;10.95;100.00
50933;BME280;36921;49.006;9.292;2023-04-20T10:03:50;98451.81;;;11.20;100.00
50933;BME280;36921;49.006;9.292;2023-04-20T10:06:30;98459.16;;;11.06;100.00
50933;BME280;36921;49.006;9.292;2023-04-20T10:08:57;98458.97;;;11.01;100.00
50933;BME280;36921;49.006;9.292;2023-04-20T10:11:27;98456.72;;;10.98;100.00
50933;BME280;36921;49.006;9.292;2023-04-20T10:13:55;98443.28;;;11.16;100.00
50933;BME280;36921;49.006;9.292;2023-04-20T10:16:21;98453.28;;;11.54;100.00
50933;BME280;36921;49.006;9.292;2023-04-20T10:18:56;98443.53;;;11.47;98.52
50933;BME280;36921;49.006;9.292;2023-04-20T10:21:22;98422.41;;;11.24;99.07
50933;BME280;36921;49.006;9.292;2023-04-20T10:23:48;98440.09;;;11.26;100.00
50933;BME280;36921;49.006;9.292;2023-04-20T10:26:14;98436.97;;;11.29;100.00
50933;BME280;36921;49.006;9.292;2023-04-20T10:28:41;98438.38;;;11.38;99.93
50933;BME280;36921;49.006;9.292;2023-04-20T10:31:10;98448.91;;;11.53;100.00
50933;BME280;36921;49.006;9.292;2023-04-20T10:33:53;98428.16;;;11.40;98.98
50933;BME280;36921;49.006;9.292;2023-04-20T10:36:26;98440.34;;;11.25;98.90
50933;BME280;36921;49.006;9.292;2023-04-20T10:38:52;98427.19;;;10.90;100.00
50933;BME280;36921;49.006;9.292;2023-04-20T10:41:17;98431.34;;;10.79;100.00
50933;BME280;36921;49.006;9.292;2023-04-20T10:43:42;98426.81;;;10.80;100.00
50933;BME280;36921;49.006;9.292;2023-04-20T10:46:18;98436.13;;;10.84;100.00
50933;BME280;36921;49.006;9.292;2023-04-20T10:48:58;98423.72;;;10.63;100.00
50933;BME280;36921;49.006;9.292;2023-04-20T10:51:25;98414.88;;;10.09;100.00
50933;BME280;36921;49.006;9.292;2023-04-20T10:54:17;98432.31;;;10.13;100.00
50933;BME280;36921;49.006;9.292;2023-04-20T10:56:45;98429.00;;;10.04;100.00
50933;BME280;36921;49.006;9.292;2023-04-20T10:59:15;98409.06;;;9.85;100.00
50933;BME280;36921;49.006;9.292;2023-04-20T11:01:42;98425.88;;;9.74;100.00
50933;BME280;36921;49.006;9.292;2023-04-20T11:04:08;98423.19;;;9.74;100.00
50933;BME280;36921;49.006;9.292;2023-04-20T11:06:38;98413.63;;;9.58;100.00
50933;BME280;36921;49.006;9.292;2023-04-20T11:09:15;98383.94;;;8.70;100.00
50933;BME280;36921;49.006;9.292;2023-04-20T11:11:42;98403.66;;;8.71;100.00
50933;BME280;36921;49.006;9.292;2023-04-20T11:14:09;98405.72;;;8.34;100.00
50933;BME280;36921;49.006;9.292;2023-04-20T11:16:35;98367.44;;;8.10;100.00
50933;BME280;36921;49.006;9.292;2023-04-20T11:19:01;98389.47;;;8.21;100.00
50933;BME280;36921;49.006;9.292;2023-04-20T11:21:41;98355.88;;;8.17;100.00
50933;BME280;36921;49.006;9.292;2023-04-20T11:24:20;98382.84;;;8.51;100.00
50933;BME280;36921;49.006;9.292;2023-04-20T11:26:46;98381.03;;;8.72;100.00
50933;BME280;36921;49.006;9.292;2023-04-20T11:32:00;98371.84;;;9.48;100.00
50933;BME280;36921;49.006;9.292;2023-04-20T11:34:26;98356.06;;;9.84;100.00
50933;BME280;36921;49.006;9.292;2023-04-20T11:36:52;98365.72;;;10.52;100.00
50933;BME280;36921;49.006;9.292;2023-04-20T11:39:26;98364.19;;;11.08;100.00
50933;BME280;36921;49.006;9.292;2023-04-20T11:41:54;98370.63;;;11.70;100.00
50933;BME280;36921;49.006;9.292;2023-04-20T11:44:22;98360.72;;;12.07;100.00
50933;BME280;36921;49.006;9.292;2023-04-20T11:46:47;98357.13;;;12.69;100.00
50933;BME280;36921;49.006;9.292;2023-04-20T11:49:15;98363.72;;;13.22;100.00
50933;BME280;36921;49.006;9.292;2023-04-20T11:51:40;98365.38;;;13.23;100.00
50933;BME280;36921;49.006;9.292;2023-04-20T11:54:06;98365.31;;;13.29;100.00
50933;BME280;36921;49.006;9.292;2023-04-20T11:56:31;98379.00;;;12.37;100.00
50933;BME280;36921;49.006;9.292;2023-04-20T11:58:56;98369.63;;;12.15;100.00
50933;BME280;36921;49.006;9.292;2023-04-20T12:01:22;98376.03;;;11.45;100.00
50933;BME280;36921;49.006;9.292;2023-04-20T12:03:47;98382.41;;;11.26;100.00
50933;BME280;36921;49.006;9.292;2023-04-20T12:06:12;98364.38;;;10.74;100.00
50933;BME280;36921;49.006;9.292;2023-04-20T12:08:38;98377.28;;;10.72;100.00
50933;BME280;36921;49.006;9.292;2023-04-20T12:11:03;98380.66;;;10.61;100.00
50933;BME280;36921;49.006;9.292;2023-04-20T12:13:28;98381.25;;;10.63;100.00
50933;BME280;36921;49.006;9.292;2023-04-20T12:15:54;98382.72;;;10.66;100.00
50933;BME280;36921;49.006;9.292;2023-04-20T12:18:19;98381.00;;;10.78;100.00
50933;BME280;36921;49.006;9.292;2023-04-20T12:20:44;98382.25;;;10.82;100.00
50933;BME280;36921;49.006;9.292;2023-04-20T12:23:11;98368.72;;;10.75;100.00
50933;BME280;36921;49.006;9.292;2023-04-20T12:25:36;98371.16;;;10.39;100.00
50933;BME280;36921;49.006;9.292;2023-04-20T12:28:01;98362.09;;;9.93;100.00
50933;BME280;36921;49.006;9.292;2023-04-20T12:30:31;98362.09;;;9.86;100.00
50933;BME280;36921;49.006;9.292;2023-04-20T12:32:56;98352.72;;;9.89;100.00
50933;BME280;36921;49.006;9.292;2023-04-20T12:35:22;98349.63;;;9.85;100.00
50933;BME280;36921;49.006;9.292;2023-04-20T12:37:47;98351.69;;;10.03;100.00
50933;BME280;36921;49.006;9.292;2023-04-20T12:40:12;98353.75;;;9.95;100.00
50933;BME280;36921;49.006;9.292;2023-04-20T12:42:38;98343.56;;;9.90;100.00
50933;BME280;36921;49.006;9.292;2023-04-20T12:45:03;98346.47;;;9.95;100.00
50933;BME280;36921;49.006;9.292;2023-04-20T12:47:29;98345.88;;;9.93;100.00
50933;BME280;36921;49.006;9.292;2023-04-20T12:49:54;98344.22;;;9.79;100.00
50933;BME280;36921;49.006;9.292;2023-04-20T12:52:20;98344.84;;;9.81;100.00
50933;BME280;36921;49.006;9.292;2023-04-20T12:54:45;98357.53;;;9.74;100.00
50933;BME280;36921;49.006;9.292;2023-04-20T12:57:10;98346.47;;;9.95;100.00
50933;BME280;36921;49.006;9.292;2023-04-20T12:59:36;98345.88;;;9.73;100.00
50933;BME280;36921;49.006;9.292;2023-04-20T13:02:01;98354.41;;;9.70;100.00